National Weather Service United States Department of Commerce

Heavy rain and higher elevation snow continue for the Northwest, fire danger continues in Southern California

A series of Pacific storms will bring strong winds, heavy rain, and mountain snow to the Pacific Northwest and northern Rockies through Sunday. Heavy rainfall and flooding is possible from the Mississippi Valley to the Deep South and Southeast U.S. this weekend and into early next week. Dry winds will prolong the fire weather threat for Southern California for several days. Read More >

                                        ZTL Airspace Summary / KGSP TAF                    For ATC Planning Purposes Only
ZTL Airspace Summary:
High pressure will continue to dominate the airspace. Expect VFR conditions over all ZTL this afternoon and evening with MVFR and patchy IFR conditions developing after 07z Sunday morning, mostly in AL/GA/SC. Surface winds will be north to southeast at 3-10kts and frequently calm after 23z. Flight Hazards: None expected.

Updated:10/21/2017 5:00 PM
 

Greenville Spartanburg Terminal Aerodrome Forecast:
 
FTUS41 KGSP 212324
KGSP 212320Z 2200/2224 00000KT P6SM FEW250
     FM221300 04004KT P6SM SCT200
     FM221700 11006KT P6SM BKN035

 

GSP METAR:  
SAUS70 KGSP 220400 RRE
METAR KGSP 220353Z AUTO 04003KT 10SM CLR 15/13 A3032 RMK AO2 SLP261
     T01500128

Go to KGSP TAF TDA
Go to KGSP TAF TDA

GSP TRACON HAZARDS
GSP TRACON: SFC-10000
AVG CIG BASE WHERE REPORTED BLW 10000FT: NONE REPORTED
LOWEST REPORTED CIG: NONE REPORTED
LOWEST REPORTED FLIGHT CAT: VFR
METARS:
KFQD 220425Z AUTO 00000KT 10SM CLR 12/12 A3034 RMK AO2 T01210121
KCEU 220354Z AUTO 35003KT 10SM CLR 16/13 A3032 RMK AO2 SLP262 T01610128 $
KGMU 220353Z AUTO 02004KT 10SM CLR 17/11 A3032 RMK AO2 SLP262 T01670111
KLQK 220435Z AUTO 00000KT 10SM CLR 11/11 A3031 RMK AO2 T01110111
KSPA 220435Z AUTO 00000KT 10SM CLR 13/11 A3031 RMK AO2
KAND 220356Z AUTO 06005KT 10SM CLR 16/12 A3031 RMK AO2 SLP256 T01610117
KLUX 220435Z AUTO 00000KT 10SM CLR 12/11 A3031 RMK AO2
KGRD 220356Z AUTO 00000KT 10SM CLR 13/13 A3032 RMK AO2 SLP263 T01280128 $
KGSP 220353Z AUTO 04003KT 10SM CLR 15/13 A3032 RMK AO2 SLP261 T01500128

GSP TRACON HAZARD

Forecast Surface Map Loop / Collaborative Convective Forecast Product / Vertical Wind Profile
Weather Map

 

AIRMETs & SIGMETS/ Southeast Radar loop / Satellite Image (click on image to enlarge)
Weather Map Southeast Radar Loop

satellite